createdAt,value
2023-04-13T00:03:04.504Z,40.92
2023-04-13T00:06:10.876Z,36.97
2023-04-13T00:09:15.962Z,38.63
2023-04-13T00:12:21.254Z,39.42
2023-04-13T00:15:26.574Z,38.67
2023-04-13T00:18:29.816Z,41.13
2023-04-13T00:21:34.140Z,41.97
2023-04-13T00:24:37.356Z,40.90
2023-04-13T00:27:40.562Z,41.95
2023-04-13T00:30:45.123Z,40.50
2023-04-13T00:33:48.496Z,40.35
2023-04-13T00:36:52.483Z,40.55
2023-04-13T00:39:56.003Z,39.90
2023-04-13T00:43:00.609Z,41.30
2023-04-13T00:46:08.900Z,40.33
2023-04-13T00:49:12.677Z,40.53
2023-04-13T00:52:16.477Z,40.72
2023-04-13T00:55:22.002Z,43.20
2023-04-13T00:58:26.329Z,42.25
2023-04-13T01:01:31.559Z,45.00
2023-04-13T01:04:35.556Z,45.80
2023-04-13T01:07:44.942Z,46.67
2023-04-13T01:10:54.424Z,34.67
2023-04-13T01:14:04.146Z,45.28
2023-04-13T01:17:17.902Z,49.25
2023-04-13T01:20:22.472Z,47.63
2023-04-13T01:23:35.505Z,50.95
2023-04-13T01:26:54.545Z,50.35
2023-04-13T01:30:00.219Z,46.50
2023-04-13T01:33:04.482Z,47.47
2023-04-13T01:36:10.473Z,45.47
2023-04-13T01:39:20.430Z,46.28
2023-04-13T01:42:27.528Z,48.05
2023-04-13T01:45:40.713Z,51.55
2023-04-13T01:48:48.577Z,49.60
2023-04-13T01:52:13.139Z,50.20
2023-04-13T01:55:16.812Z,53.35
2023-04-13T01:58:28.255Z,54.13
2023-04-13T02:01:39.052Z,51.50
2023-04-13T02:04:42.914Z,56.10
2023-04-13T02:07:46.733Z,55.03
2023-04-13T02:10:50.180Z,54.10
2023-04-13T02:13:55.361Z,56.42
2023-04-13T02:17:00.163Z,54.22
2023-04-13T02:20:11.113Z,52.65
2023-04-13T02:23:15.841Z,53.42
2023-04-13T02:26:20.807Z,56.78
2023-04-13T02:29:24.708Z,53.25
2023-04-13T02:32:29.874Z,55.47
2023-04-13T02:35:35.580Z,53.92
2023-04-13T02:38:38.940Z,50.58
2023-04-13T02:41:48.629Z,50.50
2023-04-13T02:44:56.810Z,49.45
2023-04-13T02:48:02.346Z,49.90
2023-04-13T02:51:06.535Z,50.13
2023-04-13T02:54:13.470Z,51.03
2023-04-13T02:57:23.561Z,53.15
2023-04-13T03:00:28.671Z,53.38
2023-04-13T03:03:38.046Z,53.83
2023-04-13T03:06:44.255Z,56.05
2023-04-13T03:09:48.257Z,55.80
2023-04-13T03:12:53.602Z,54.90
2023-04-13T03:15:58.030Z,54.78
2023-04-13T03:19:05.539Z,53.00
2023-04-13T03:22:11.314Z,52.80
2023-04-13T03:25:21.106Z,52.42
2023-04-13T03:28:24.911Z,51.22
2023-04-13T03:31:29.244Z,49.25
2023-04-13T03:34:34.643Z,52.90
2023-04-13T03:37:44.931Z,54.33
2023-04-13T03:40:57.901Z,52.28
2023-04-13T03:44:03.769Z,51.40
2023-04-13T03:47:09.700Z,53.13
2023-04-13T03:50:15.654Z,54.08
2023-04-13T03:53:19.189Z,52.92
2023-04-13T03:56:24.976Z,51.38
2023-04-13T03:59:29.012Z,52.88
2023-04-13T04:02:33.131Z,50.22
2023-04-13T04:05:40.588Z,47.20
2023-04-13T04:08:45.504Z,50.22
2023-04-13T04:12:02.238Z,52.33
2023-04-13T04:15:15.958Z,52.92
2023-04-13T04:18:20.619Z,55.25
2023-04-13T04:21:33.877Z,51.67
2023-04-13T04:24:40.344Z,52.13
2023-04-13T04:27:46.878Z,53.25
2023-04-13T04:30:55.476Z,51.38
2023-04-13T04:34:01.170Z,52.92
2023-04-13T04:37:19.715Z,51.70
2023-04-13T04:40:35.970Z,51.08
2023-04-13T04:43:46.249Z,49.00
2023-04-13T04:46:52.415Z,54.60
2023-04-13T04:49:58.135Z,55.75
2023-04-13T04:53:04.718Z,57.60
2023-04-13T04:56:09.445Z,59.75
2023-04-13T04:59:24.067Z,64.90
2023-04-13T05:02:37.992Z,68.15
2023-04-13T05:05:45.613Z,69.50
2023-04-13T05:08:57.009Z,85.73
2023-04-13T05:12:01.799Z,71.15
2023-04-13T05:15:07.887Z,72.45
2023-04-13T05:18:13.161Z,72.88
2023-04-13T05:21:17.761Z,72.75
2023-04-13T05:24:31.145Z,72.53
2023-04-13T05:27:34.867Z,76.53
2023-04-13T05:30:38.242Z,71.57
2023-04-13T05:33:41.915Z,69.80
2023-04-13T05:36:45.237Z,68.05
2023-04-13T05:39:51.843Z,67.43
2023-04-13T05:42:59.140Z,72.88
2023-04-13T05:46:06.405Z,70.53
2023-04-13T05:49:10.672Z,69.90
2023-04-13T05:52:14.022Z,66.70
2023-04-13T05:55:23.576Z,67.53
2023-04-13T05:58:34.617Z,67.68
2023-04-13T06:02:01.027Z,65.57
2023-04-13T06:05:05.160Z,63.53
2023-04-13T06:08:10.611Z,65.95
2023-04-13T06:11:16.950Z,66.15
2023-04-13T06:14:20.921Z,67.32
2023-04-13T06:17:24.405Z,59.58
2023-04-13T06:20:28.014Z,57.13
2023-04-13T06:23:33.254Z,51.03
2023-04-13T06:26:40.949Z,46.63
2023-04-13T06:29:44.275Z,46.20
2023-04-13T06:32:48.009Z,41.33
2023-04-13T06:35:54.667Z,39.17
2023-04-13T06:38:59.068Z,38.88
2023-04-13T06:42:04.240Z,40.88
2023-04-13T06:45:43.633Z,62.28
2023-04-13T06:48:54.892Z,37.95
2023-04-13T06:52:01.842Z,41.95
2023-04-13T06:55:07.212Z,45.97
2023-04-13T06:58:15.868Z,43.92
2023-04-13T07:01:19.501Z,35.08
2023-04-13T07:04:24.474Z,35.72
2023-04-13T07:07:29.975Z,35.95
2023-04-13T07:10:37.397Z,34.90
2023-04-13T07:13:42.683Z,34.40
2023-04-13T07:16:48.309Z,34.33
2023-04-13T07:19:52.360Z,33.47
2023-04-13T07:22:55.767Z,33.75
2023-04-13T07:25:59.708Z,33.15
2023-04-13T07:29:12.114Z,32.55
2023-04-13T07:32:17.614Z,37.65
2023-04-13T07:35:22.671Z,32.33
2023-04-13T07:38:26.193Z,32.97
2023-04-13T07:41:29.585Z,31.40
2023-04-13T07:44:37.679Z,30.17
2023-04-13T07:47:43.780Z,32.53
2023-04-13T07:50:48.316Z,33.58
2023-04-13T07:53:57.199Z,32.67
2023-04-13T07:57:03.979Z,32.58
2023-04-13T08:00:12.372Z,31.33
2023-04-13T08:03:22.218Z,32.08
2023-04-13T08:06:27.170Z,33.72
2023-04-13T08:09:34.330Z,34.42
2023-04-13T08:12:37.671Z,30.77
2023-04-13T08:15:43.098Z,33.10
2023-04-13T08:18:46.932Z,33.38
2023-04-13T08:21:50.367Z,34.28
2023-04-13T08:24:54.678Z,34.10
2023-04-13T08:27:58.033Z,31.77
2023-04-13T08:31:02.952Z,31.35
2023-04-13T08:34:10.374Z,29.55
2023-04-13T08:37:16.060Z,31.88
2023-04-13T08:40:22.758Z,30.42
2023-04-13T08:43:29.107Z,30.65
2023-04-13T08:46:34.430Z,29.75
2023-04-13T08:49:40.652Z,30.60
2023-04-13T08:52:51.211Z,31.02
2023-04-13T08:55:55.942Z,30.08
2023-04-13T08:59:04.721Z,28.85
2023-04-13T09:02:10.387Z,28.33
2023-04-13T09:05:25.328Z,28.17
2023-04-13T09:08:35.649Z,30.33
2023-04-13T09:11:42.872Z,28.38
2023-04-13T09:14:46.294Z,30.38
2023-04-13T09:17:51.128Z,29.40
2023-04-13T09:20:59.854Z,24.48
2023-04-13T09:24:03.220Z,24.85
2023-04-13T09:27:06.496Z,25.95
2023-04-13T09:30:11.292Z,26.13
2023-04-13T09:33:18.090Z,25.42
2023-04-13T09:36:22.917Z,26.30
2023-04-13T09:39:28.114Z,25.15
2023-04-13T09:42:32.115Z,24.98
2023-04-13T09:45:36.451Z,24.42
2023-04-13T09:48:41.602Z,25.55
2023-04-13T09:51:44.891Z,25.17
2023-04-13T09:54:51.338Z,26.33
2023-04-13T09:57:54.836Z,26.92
2023-04-13T10:00:59.581Z,25.48
2023-04-13T10:04:06.688Z,28.08
2023-04-13T10:07:10.845Z,25.83
2023-04-13T10:10:14.190Z,23.50
2023-04-13T10:13:24.097Z,22.40
2023-04-13T10:16:54.004Z,22.83
2023-04-13T10:20:07.582Z,22.75
2023-04-13T10:23:11.849Z,25.80
2023-04-13T10:26:15.321Z,26.80
2023-04-13T10:29:29.196Z,24.90
2023-04-13T10:32:32.564Z,24.98
2023-04-13T10:35:40.041Z,25.08
2023-04-13T10:38:46.058Z,24.60
2023-04-13T10:42:00.157Z,24.42
2023-04-13T10:45:03.460Z,23.98
2023-04-13T10:48:07.695Z,23.90
2023-04-13T10:51:12.461Z,22.75
2023-04-13T10:54:16.004Z,21.63
2023-04-13T10:57:19.245Z,22.85
2023-04-13T11:00:29.303Z,18.85
2023-04-13T11:03:36.607Z,19.15
2023-04-13T11:06:41.464Z,18.52
2023-04-13T11:09:47.121Z,16.83
2023-04-13T11:12:51.359Z,16.75
2023-04-13T11:16:03.002Z,19.33
2023-04-13T11:19:06.801Z,18.85
2023-04-13T11:22:17.857Z,17.50
2023-04-13T11:25:21.082Z,17.17
2023-04-13T11:28:25.222Z,15.52
2023-04-13T11:31:39.027Z,15.45
2023-04-13T11:34:42.545Z,17.08
2023-04-13T11:37:49.527Z,17.13
2023-04-13T11:41:01.715Z,15.02
2023-04-13T11:44:15.746Z,12.85
2023-04-13T11:47:19.485Z,12.82
2023-04-13T11:50:23.447Z,13.25
2023-04-13T11:53:29.115Z,12.52
2023-04-13T11:56:32.598Z,13.60
2023-04-13T11:59:36.357Z,13.07
2023-04-13T12:03:00.510Z,12.70
2023-04-13T12:06:06.835Z,11.13
2023-04-13T12:09:18.045Z,10.57
2023-04-13T12:15:43.214Z,9.90
2023-04-13T12:18:49.834Z,8.70
2023-04-13T12:21:56.499Z,9.35
2023-04-13T12:25:02.586Z,10.00
2023-04-13T12:28:06.207Z,8.00
2023-04-13T12:31:12.527Z,8.13
2023-04-13T12:34:16.006Z,8.02
2023-04-13T12:37:19.332Z,6.90
2023-04-13T12:40:24.125Z,7.13
2023-04-13T12:43:28.145Z,7.45
2023-04-13T12:46:32.347Z,7.32
2023-04-13T12:49:35.888Z,6.82
2023-04-13T12:52:40.937Z,6.50
2023-04-13T12:55:45.623Z,7.80
2023-04-13T12:58:49.203Z,6.43
2023-04-13T13:01:52.520Z,6.25
2023-04-13T13:04:57.164Z,6.57
2023-04-13T13:08:00.557Z,6.50
2023-04-13T13:11:09.344Z,6.80
2023-04-13T13:14:12.734Z,6.78
2023-04-13T13:17:16.053Z,6.68
2023-04-13T13:20:19.282Z,6.35
2023-04-13T13:23:22.605Z,7.30
2023-04-13T13:26:30.611Z,7.22
2023-04-13T13:29:43.248Z,8.30
2023-04-13T13:32:46.454Z,7.78
2023-04-13T13:35:49.820Z,7.15
2023-04-13T13:38:53.138Z,6.60
2023-04-13T13:41:58.453Z,6.90
2023-04-13T13:45:01.873Z,6.10
2023-04-13T13:48:08.970Z,5.90
2023-04-13T13:51:21.561Z,6.63
2023-04-13T13:54:25.430Z,7.70
2023-04-13T13:57:30.080Z,5.90
2023-04-13T14:00:35.031Z,6.07
2023-04-13T14:03:39.031Z,6.95
2023-04-13T14:06:42.567Z,6.95
2023-04-13T14:09:46.628Z,5.97
2023-04-13T14:12:51.927Z,5.85
2023-04-13T14:15:56.822Z,6.00
2023-04-13T14:19:00.321Z,6.40
2023-04-13T14:22:03.733Z,6.20
2023-04-13T14:25:09.185Z,5.47
2023-04-13T14:28:14.735Z,5.80
2023-04-13T14:31:18.040Z,4.82
2023-04-13T14:34:22.178Z,5.20
2023-04-13T14:37:27.137Z,4.68
2023-04-13T14:40:30.562Z,4.88
2023-04-13T14:43:35.562Z,5.00
2023-04-13T14:46:39.339Z,5.55
2023-04-13T14:49:43.110Z,5.10
2023-04-13T14:52:47.053Z,5.07
2023-04-13T14:55:50.759Z,5.85
2023-04-13T14:58:55.392Z,5.45
2023-04-13T15:01:59.007Z,5.47
2023-04-13T15:05:03.084Z,5.18
2023-04-13T15:08:07.324Z,5.63
2023-04-13T15:11:10.843Z,4.97
2023-04-13T15:14:15.624Z,5.57
2023-04-13T15:17:18.883Z,5.57
2023-04-13T15:20:22.120Z,5.10
2023-04-13T15:23:25.524Z,5.00
2023-04-13T15:26:30.468Z,4.82
2023-04-13T15:29:35.071Z,5.00
2023-04-13T15:32:38.311Z,4.95
2023-04-13T15:35:41.730Z,4.97
2023-04-13T15:38:44.948Z,5.18
2023-04-13T15:41:48.165Z,4.40
2023-04-13T15:44:53.586Z,5.07
2023-04-13T15:47:57.075Z,4.88
2023-04-13T15:51:00.545Z,5.25
2023-04-13T15:54:03.784Z,5.03
2023-04-13T15:57:07.081Z,5.22
2023-04-13T16:00:13.396Z,5.75
2023-04-13T16:03:17.400Z,5.97
2023-04-13T16:06:20.743Z,5.85
2023-04-13T16:09:24.447Z,5.50
2023-04-13T16:12:31.408Z,5.55
2023-04-13T16:15:37.125Z,5.88
2023-04-13T16:18:40.626Z,5.47
2023-04-13T16:21:43.915Z,5.50
2023-04-13T16:24:47.089Z,6.32
2023-04-13T16:27:50.605Z,6.00
2023-04-13T16:30:55.190Z,6.20
2023-04-13T16:33:58.538Z,5.43
2023-04-13T16:37:01.765Z,6.47
2023-04-13T16:40:09.218Z,6.60
2023-04-13T16:43:12.542Z,6.40
2023-04-13T16:46:17.339Z,6.85
2023-04-13T16:49:20.785Z,6.85
2023-04-13T16:52:24.148Z,7.25
2023-04-13T16:55:28.893Z,6.82
2023-04-13T16:58:35.205Z,7.15
2023-04-13T17:01:40.932Z,8.35
2023-04-13T17:04:44.918Z,7.82
2023-04-13T17:07:48.913Z,8.75
2023-04-13T17:10:53.206Z,8.35
2023-04-13T17:13:57.317Z,9.43
2023-04-13T17:17:03.062Z,9.05
2023-04-13T17:20:08.558Z,8.98
2023-04-13T17:23:12.776Z,8.13
2023-04-13T17:26:16.742Z,8.38
2023-04-13T17:29:22.099Z,8.40
2023-04-13T17:32:27.507Z,7.97
2023-04-13T17:35:31.782Z,8.80
2023-04-13T17:38:36.161Z,9.32
2023-04-13T17:41:41.890Z,9.25
2023-04-13T17:44:46.162Z,10.98
2023-04-13T17:47:51.594Z,10.98
2023-04-13T17:50:55.236Z,13.15
2023-04-13T17:53:59.085Z,13.57
2023-04-13T17:57:03.007Z,15.25
2023-04-13T18:00:09.793Z,19.20
2023-04-13T18:03:16.627Z,21.98
2023-04-13T18:06:20.397Z,22.65
2023-04-13T18:09:25.460Z,32.03
2023-04-13T18:12:28.761Z,30.95
2023-04-13T18:15:34.312Z,34.00
2023-04-13T18:18:39.100Z,43.17
2023-04-13T18:21:42.279Z,46.38
2023-04-13T18:24:45.698Z,52.42
2023-04-13T18:27:49.274Z,48.85
2023-04-13T18:30:52.606Z,43.58
2023-04-13T18:33:57.708Z,43.92
2023-04-13T18:37:01.152Z,44.50
2023-04-13T18:40:05.380Z,42.05
2023-04-13T18:43:08.816Z,44.90
2023-04-13T18:46:12.858Z,42.95
2023-04-13T18:49:17.742Z,43.78
2023-04-13T18:52:21.588Z,42.72
2023-04-13T18:55:26.849Z,41.25
2023-04-13T18:58:30.554Z,40.35
2023-04-13T19:01:33.935Z,38.20
2023-04-13T19:04:40.145Z,37.88
2023-04-13T19:07:45.804Z,38.05
2023-04-13T19:10:50.246Z,39.00
2023-04-13T19:13:53.759Z,37.53
2023-04-13T19:16:57.824Z,36.63
2023-04-13T19:20:04.013Z,36.25
2023-04-13T19:23:07.788Z,37.05
2023-04-13T19:26:11.299Z,39.53
2023-04-13T19:29:16.077Z,38.95
2023-04-13T19:32:19.493Z,39.13
2023-04-13T19:35:26.265Z,40.20
2023-04-13T19:38:29.913Z,42.95
2023-04-13T19:41:33.761Z,44.42
2023-04-13T19:44:37.148Z,41.70
2023-04-13T19:47:42.519Z,38.42
2023-04-13T19:50:47.433Z,35.92
2023-04-13T19:53:51.026Z,35.97
2023-04-13T19:56:54.520Z,31.88
2023-04-13T19:59:58.339Z,30.73
2023-04-13T20:03:04.345Z,29.70
2023-04-13T20:06:09.501Z,28.67
2023-04-13T20:09:15.333Z,27.73
2023-04-13T20:12:19.208Z,28.50
2023-04-13T20:15:22.802Z,27.00
2023-04-13T20:18:27.560Z,26.40
2023-04-13T20:21:33.108Z,26.23
2023-04-13T20:24:36.468Z,24.42
2023-04-13T20:27:42.289Z,25.45
2023-04-13T20:30:45.977Z,24.70
2023-04-13T20:33:49.919Z,25.25
2023-04-13T20:36:56.515Z,24.45
2023-04-13T20:39:59.876Z,23.55
2023-04-13T20:43:04.762Z,21.45
2023-04-13T20:46:08.716Z,21.95
2023-04-13T20:49:12.159Z,20.45
2023-04-13T20:52:18.198Z,20.95
2023-04-13T20:55:22.250Z,19.95
2023-04-13T20:58:25.538Z,20.02
2023-04-13T21:01:30.193Z,19.20
2023-04-13T21:04:33.555Z,18.52
2023-04-13T21:07:40.245Z,18.42
2023-04-13T21:10:44.238Z,17.33
2023-04-13T21:13:47.574Z,16.80
2023-04-13T21:16:51.078Z,16.70
2023-04-13T21:19:54.408Z,17.00
2023-04-13T21:22:59.484Z,15.85
2023-04-13T21:26:02.921Z,18.45
2023-04-13T21:29:07.495Z,17.23
2023-04-13T21:32:11.044Z,18.52
2023-04-13T21:35:17.265Z,18.13
2023-04-13T21:38:21.934Z,18.25
2023-04-13T21:41:25.287Z,20.33
2023-04-13T21:44:30.143Z,19.08
2023-04-13T21:47:33.770Z,18.27
2023-04-13T21:50:37.039Z,19.85
2023-04-13T21:53:41.726Z,19.63
2023-04-13T21:56:46.747Z,19.67
2023-04-13T21:59:50.034Z,18.83
2023-04-13T22:02:55.333Z,20.25
2023-04-13T22:05:59.972Z,18.95
2023-04-13T22:09:04.906Z,17.85
2023-04-13T22:12:10.372Z,18.40
2023-04-13T22:15:13.613Z,17.67
2023-04-13T22:18:17.023Z,17.88
2023-04-13T22:21:20.628Z,17.70
2023-04-13T22:24:25.193Z,16.52
2023-04-13T22:27:28.363Z,16.70
2023-04-13T22:30:31.550Z,16.85
2023-04-13T22:33:36.029Z,17.90
2023-04-13T22:36:39.388Z,17.50
2023-04-13T22:39:44.118Z,17.42
2023-04-13T22:42:47.330Z,17.70
2023-04-13T22:45:59.015Z,16.92
2023-04-13T22:49:03.359Z,16.38
2023-04-13T22:52:32.037Z,16.95
2023-04-13T22:55:36.704Z,16.17
2023-04-13T22:58:39.981Z,16.08
2023-04-13T23:01:43.276Z,16.27
2023-04-13T23:04:46.846Z,17.05
2023-04-13T23:07:50.620Z,16.15
2023-04-13T23:10:55.213Z,16.52
2023-04-13T23:14:00.614Z,16.77
2023-04-13T23:17:03.883Z,16.33
2023-04-13T23:20:08.243Z,16.92
2023-04-13T23:23:11.836Z,16.88
2023-04-13T23:26:16.530Z,17.27
2023-04-13T23:29:22.065Z,17.00
2023-04-13T23:32:25.585Z,17.40
2023-04-13T23:35:28.862Z,16.65
2023-04-13T23:38:33.083Z,16.67
2023-04-13T23:41:37.697Z,16.08
2023-04-13T23:44:40.977Z,17.33
2023-04-13T23:47:44.222Z,16.58
2023-04-13T23:50:48.227Z,16.02
2023-04-13T23:53:51.421Z,17.38
2023-04-13T23:56:56.483Z,17.08
2023-04-13T23:59:59.600Z,18.10
